createdAt,value
2022-08-30T00:01:29.135Z,21.10
2022-08-30T00:03:58.462Z,21.32
2022-08-30T00:06:27.073Z,21.19
2022-08-30T00:08:55.705Z,20.95
2022-08-30T00:11:26.060Z,21.01
2022-08-30T00:13:55.416Z,20.97
2022-08-30T00:16:23.347Z,20.89
2022-08-30T00:18:52.026Z,20.92
2022-08-30T00:21:19.421Z,20.95
2022-08-30T00:23:46.678Z,21.07
2022-08-30T00:26:13.962Z,21.05
2022-08-30T00:28:41.259Z,21.12
2022-08-30T00:31:08.665Z,21.07
2022-08-30T00:33:36.236Z,20.97
2022-08-30T00:36:03.581Z,20.89
2022-08-30T00:38:30.885Z,20.91
2022-08-30T00:40:59.881Z,20.68
2022-08-30T00:43:30.420Z,20.76
2022-08-30T00:45:58.187Z,20.70
2022-08-30T00:48:25.915Z,20.74
2022-08-30T00:50:56.460Z,20.61
2022-08-30T00:53:27.384Z,20.46
2022-08-30T00:55:55.329Z,20.68
2022-08-30T00:58:26.172Z,20.84
2022-08-30T01:00:55.403Z,20.61
2022-08-30T01:03:23.093Z,20.71
2022-08-30T01:05:51.657Z,20.57
2022-08-30T01:08:22.186Z,20.53
2022-08-30T01:10:50.747Z,20.61
2022-08-30T01:13:18.188Z,20.44
2022-08-30T01:15:46.272Z,20.54
2022-08-30T01:18:17.219Z,20.59
2022-08-30T01:21:04.815Z,20.58
2022-08-30T01:23:32.517Z,20.44
2022-08-30T01:26:00.698Z,20.43
2022-08-30T01:28:28.588Z,20.52
2022-08-30T01:30:56.206Z,20.56
2022-08-30T01:33:24.916Z,20.27
2022-08-30T01:35:58.358Z,20.25
2022-08-30T01:38:32.663Z,20.23
2022-08-30T01:41:19.896Z,20.26
2022-08-30T01:43:47.784Z,20.42
2022-08-30T01:46:16.998Z,20.52
2022-08-30T01:48:50.221Z,20.52
2022-08-30T01:51:21.969Z,20.62
2022-08-30T01:53:49.346Z,20.68
2022-08-30T01:56:16.689Z,20.64
2022-08-30T01:58:44.227Z,20.49
2022-08-30T02:01:13.975Z,20.27
2022-08-30T02:03:43.367Z,20.19
2022-08-30T02:06:14.339Z,20.26
2022-08-30T02:08:42.227Z,20.35
2022-08-30T02:11:09.775Z,20.34
2022-08-30T02:13:37.869Z,20.11
2022-08-30T02:16:07.665Z,20.06
2022-08-30T02:18:36.844Z,20.13
2022-08-30T02:21:04.260Z,19.95
2022-08-30T02:23:31.815Z,20.03
2022-08-30T02:25:59.561Z,20.20
2022-08-30T02:28:26.950Z,20.28
2022-08-30T02:30:54.293Z,20.40
2022-08-30T02:33:21.859Z,20.57
2022-08-30T02:35:49.141Z,20.43
2022-08-30T02:38:16.425Z,20.17
2022-08-30T02:40:47.504Z,20.17
2022-08-30T02:43:15.130Z,20.19
2022-08-30T02:45:42.655Z,20.26
2022-08-30T02:48:10.179Z,20.29
2022-08-30T02:50:45.529Z,20.48
2022-08-30T02:53:16.215Z,20.56
2022-08-30T02:55:44.244Z,20.26
2022-08-30T02:58:11.983Z,19.83
2022-08-30T03:00:41.307Z,19.56
2022-08-30T03:03:09.918Z,19.44
2022-08-30T03:05:39.706Z,19.55
2022-08-30T03:08:08.308Z,19.91
2022-08-30T03:10:36.257Z,19.35
2022-08-30T03:13:05.303Z,19.28
2022-08-30T03:15:32.585Z,19.16
2022-08-30T03:17:59.907Z,18.86
2022-08-30T03:20:28.542Z,18.84
2022-08-30T03:22:55.887Z,18.96
2022-08-30T03:25:23.523Z,18.98
2022-08-30T03:27:50.862Z,19.09
2022-08-30T03:30:19.679Z,18.92
2022-08-30T03:32:47.248Z,18.78
2022-08-30T03:35:16.259Z,18.45
2022-08-30T03:37:43.897Z,18.38
2022-08-30T03:40:12.993Z,18.40
2022-08-30T03:42:41.397Z,18.37
2022-08-30T03:45:12.604Z,18.14
2022-08-30T03:47:41.050Z,18.31
2022-08-30T03:50:10.364Z,18.37
2022-08-30T03:52:37.703Z,18.52
2022-08-30T03:55:06.180Z,18.87
2022-08-30T03:57:33.864Z,19.37
2022-08-30T04:00:05.177Z,19.44
2022-08-30T04:02:39.145Z,19.11
2022-08-30T04:05:07.374Z,19.05
2022-08-30T04:07:34.677Z,19.01
2022-08-30T04:10:03.991Z,18.86
2022-08-30T04:12:31.337Z,18.74
2022-08-30T04:14:58.942Z,18.76
2022-08-30T04:17:26.240Z,18.99
2022-08-30T04:19:53.661Z,18.76
2022-08-30T04:22:21.987Z,18.51
2022-08-30T04:24:49.539Z,18.80
2022-08-30T04:27:20.555Z,19.02
2022-08-30T04:29:48.157Z,19.05
2022-08-30T04:32:16.639Z,19.17
2022-08-30T04:34:43.980Z,19.15
2022-08-30T04:37:11.646Z,19.16
2022-08-30T04:39:39.540Z,19.30
2022-08-30T04:42:06.999Z,18.88
2022-08-30T04:44:34.868Z,18.86
2022-08-30T04:47:02.450Z,18.83
2022-08-30T04:49:32.389Z,18.90
2022-08-30T04:51:59.831Z,18.75
2022-08-30T04:54:27.179Z,18.85
2022-08-30T04:56:54.634Z,18.68
2022-08-30T04:59:22.135Z,18.78
2022-08-30T05:01:49.526Z,18.76
2022-08-30T05:04:16.813Z,18.76
2022-08-30T05:06:44.450Z,18.96
2022-08-30T05:09:11.992Z,18.61
2022-08-30T05:11:39.440Z,18.61
2022-08-30T05:14:07.996Z,18.58
2022-08-30T05:16:35.588Z,18.69
2022-08-30T05:19:02.902Z,18.97
2022-08-30T05:21:30.198Z,18.94
2022-08-30T05:24:00.108Z,18.87
2022-08-30T05:26:30.245Z,18.50
2022-08-30T05:28:57.768Z,18.81
2022-08-30T05:31:31.277Z,19.02
2022-08-30T05:33:59.252Z,18.59
2022-08-30T05:36:30.244Z,18.27
2022-08-30T05:38:57.877Z,18.60
2022-08-30T05:41:26.420Z,18.59
2022-08-30T05:43:55.502Z,18.74
2022-08-30T05:46:22.950Z,18.97
2022-08-30T05:48:51.251Z,18.88
2022-08-30T05:51:23.784Z,18.97
2022-08-30T05:53:53.160Z,18.96
2022-08-30T05:56:24.830Z,19.06
2022-08-30T05:58:53.755Z,18.98
2022-08-30T06:01:24.771Z,18.92
2022-08-30T06:03:53.653Z,19.13
2022-08-30T06:06:21.658Z,19.18
2022-08-30T06:08:49.552Z,19.02
2022-08-30T06:11:19.618Z,19.20
2022-08-30T06:13:47.689Z,19.28
2022-08-30T06:16:17.803Z,19.39
2022-08-30T06:18:45.279Z,19.44
2022-08-30T06:21:22.162Z,19.02
2022-08-30T06:23:49.628Z,18.96
2022-08-30T06:26:16.956Z,19.01
2022-08-30T06:28:44.592Z,19.26
2022-08-30T06:31:14.437Z,19.31
2022-08-30T06:33:42.479Z,19.15
2022-08-30T06:36:12.722Z,19.41
2022-08-30T06:38:40.128Z,19.56
2022-08-30T06:41:08.500Z,19.45
2022-08-30T06:43:35.933Z,19.30
2022-08-30T06:46:05.285Z,19.17
2022-08-30T06:48:32.875Z,18.61
2022-08-30T06:51:00.171Z,18.42
2022-08-30T06:53:29.670Z,18.89
2022-08-30T06:56:05.501Z,18.83
2022-08-30T06:58:33.402Z,18.87
2022-08-30T07:01:01.071Z,18.99
2022-08-30T07:03:28.559Z,19.22
2022-08-30T07:05:56.911Z,19.15
2022-08-30T07:08:24.836Z,19.38
2022-08-30T07:10:54.628Z,19.47
2022-08-30T07:13:24.438Z,19.77
2022-08-30T07:15:52.327Z,19.77
2022-08-30T07:18:38.735Z,19.81
2022-08-30T07:21:11.651Z,19.86
2022-08-30T07:23:39.098Z,19.73
2022-08-30T07:26:08.575Z,19.84
2022-08-30T07:28:41.331Z,19.90
2022-08-30T07:31:09.897Z,19.96
2022-08-30T07:33:38.085Z,19.94
2022-08-30T07:36:06.180Z,19.87
2022-08-30T07:38:33.882Z,19.78
2022-08-30T07:41:01.368Z,19.72
2022-08-30T07:43:29.381Z,19.72
2022-08-30T07:46:04.335Z,19.88
2022-08-30T07:48:31.957Z,19.88
2022-08-30T07:51:05.163Z,19.95
2022-08-30T07:53:32.810Z,20.28
2022-08-30T07:56:00.860Z,20.13
2022-08-30T07:58:34.138Z,20.24
2022-08-30T08:01:02.053Z,20.25
2022-08-30T08:03:29.931Z,20.27
2022-08-30T08:05:57.795Z,20.29
2022-08-30T08:08:26.230Z,20.32
2022-08-30T08:10:53.477Z,20.15
2022-08-30T08:13:20.984Z,20.32
2022-08-30T08:15:48.596Z,20.41
2022-08-30T08:18:16.102Z,20.39
2022-08-30T08:20:43.596Z,20.47
2022-08-30T08:23:10.811Z,20.73
2022-08-30T08:25:40.028Z,20.61
2022-08-30T08:28:08.176Z,20.66
2022-08-30T08:30:36.741Z,20.73
2022-08-30T08:33:05.333Z,20.42
2022-08-30T08:35:33.260Z,20.33
2022-08-30T08:38:00.958Z,20.37
2022-08-30T08:40:29.565Z,20.66
2022-08-30T08:43:02.497Z,20.81
2022-08-30T08:45:35.742Z,20.96
2022-08-30T08:48:22.639Z,21.00
2022-08-30T08:51:08.630Z,21.22
2022-08-30T08:53:46.277Z,21.11
2022-08-30T08:56:17.195Z,20.82
2022-08-30T08:58:48.646Z,20.82
2022-08-30T09:01:18.543Z,20.83
2022-08-30T09:03:47.472Z,20.97
2022-08-30T09:06:51.411Z,20.93
2022-08-30T09:09:22.325Z,21.65
2022-08-30T09:11:49.920Z,22.07
2022-08-30T09:14:20.660Z,22.30
2022-08-30T09:17:09.392Z,22.41
2022-08-30T09:20:07.978Z,22.62
2022-08-30T09:22:40.377Z,22.88
2022-08-30T09:25:17.076Z,22.54
2022-08-30T09:27:46.475Z,22.48
2022-08-30T09:30:21.482Z,22.23
2022-08-30T09:33:01.178Z,22.67
2022-08-30T09:35:43.264Z,22.31
2022-08-30T09:41:03.126Z,22.57
2022-08-30T09:43:32.613Z,22.88
2022-08-30T09:46:02.451Z,22.95
2022-08-30T09:48:37.816Z,23.17
2022-08-30T09:51:11.544Z,22.89
2022-08-30T09:53:40.707Z,23.05
2022-08-30T09:56:34.178Z,23.38
2022-08-30T09:59:26.338Z,22.63
2022-08-30T10:02:06.225Z,22.84
2022-08-30T10:04:52.013Z,23.25
2022-08-30T10:07:37.534Z,23.64
2022-08-30T10:10:22.649Z,23.62
2022-08-30T10:13:11.087Z,23.56
2022-08-30T10:15:50.253Z,23.17
2022-08-30T10:18:32.796Z,23.05
2022-08-30T10:21:27.225Z,23.35
2022-08-30T10:24:04.481Z,23.18
2022-08-30T10:26:54.516Z,23.35
2022-08-30T10:29:24.862Z,23.66
2022-08-30T10:31:53.242Z,23.94
2022-08-30T10:34:31.547Z,23.64
2022-08-30T10:37:07.714Z,23.48
2022-08-30T10:39:46.795Z,23.63
2022-08-30T10:42:21.633Z,23.82
2022-08-30T10:45:13.540Z,23.51
2022-08-30T10:47:49.557Z,23.01
2022-08-30T10:50:33.857Z,23.18
2022-08-30T10:53:06.384Z,23.65
2022-08-30T10:55:37.038Z,24.06
2022-08-30T10:58:05.957Z,24.00
2022-08-30T11:01:16.581Z,23.94
2022-08-30T11:04:14.263Z,24.28
2022-08-30T11:07:10.176Z,23.60
2022-08-30T11:09:40.599Z,23.69
2022-08-30T11:12:22.134Z,24.02
2022-08-30T11:14:49.491Z,24.17
2022-08-30T11:17:45.626Z,23.69
2022-08-30T11:20:50.362Z,23.38
2022-08-30T11:23:36.134Z,23.49
2022-08-30T11:26:12.147Z,23.74
2022-08-30T11:28:48.383Z,23.60
2022-08-30T11:31:18.913Z,24.04
2022-08-30T11:33:53.622Z,24.23
2022-08-30T11:36:37.697Z,24.49
2022-08-30T11:39:07.748Z,24.34
2022-08-30T11:41:41.925Z,24.21
2022-08-30T11:44:23.045Z,24.76
2022-08-30T11:46:54.864Z,24.19
2022-08-30T11:49:23.455Z,24.05
2022-08-30T11:52:28.051Z,24.06
2022-08-30T11:55:36.605Z,24.29
2022-08-30T11:58:17.174Z,24.98
2022-08-30T12:00:52.582Z,25.36
2022-08-30T12:03:21.931Z,25.40
2022-08-30T12:05:53.253Z,25.08
2022-08-30T12:08:20.565Z,24.79
2022-08-30T12:10:51.300Z,24.81
2022-08-30T12:13:37.181Z,24.88
2022-08-30T12:16:19.971Z,24.84
2022-08-30T12:18:48.605Z,25.08
2022-08-30T12:21:21.984Z,24.86
2022-08-30T12:23:53.827Z,25.15
2022-08-30T12:26:25.117Z,25.19
2022-08-30T12:29:34.757Z,25.18
2022-08-30T12:32:13.492Z,25.22
2022-08-30T12:34:40.698Z,25.27
2022-08-30T12:37:23.347Z,25.24
2022-08-30T12:40:12.091Z,25.29
2022-08-30T12:42:51.188Z,25.22
2022-08-30T12:45:20.958Z,24.35
2022-08-30T12:47:52.690Z,24.40
2022-08-30T12:50:26.885Z,24.67
2022-08-30T12:53:01.637Z,24.69
2022-08-30T12:55:33.778Z,25.14
2022-08-30T12:58:05.047Z,25.63
2022-08-30T13:00:36.543Z,25.76
2022-08-30T13:03:33.585Z,25.61
2022-08-30T13:06:02.738Z,25.64
2022-08-30T13:08:39.462Z,25.98
2022-08-30T13:11:29.659Z,26.25
2022-08-30T13:14:25.025Z,26.00
2022-08-30T13:17:20.295Z,25.73
2022-08-30T13:20:17.208Z,25.83
2022-08-30T13:23:01.779Z,26.10
2022-08-30T13:25:30.893Z,25.24
2022-08-30T13:28:01.574Z,25.54
2022-08-30T13:30:29.584Z,25.86
2022-08-30T13:32:56.957Z,25.94
2022-08-30T13:35:25.008Z,25.80
2022-08-30T13:37:54.471Z,25.77
2022-08-30T13:40:22.852Z,25.65
2022-08-30T13:42:50.336Z,25.42
2022-08-30T13:48:06.651Z,25.50
2022-08-30T13:50:33.868Z,25.62
2022-08-30T13:53:01.248Z,25.43
2022-08-30T13:55:28.642Z,25.65
2022-08-30T13:57:57.257Z,25.96
2022-08-30T14:00:25.867Z,26.37
2022-08-30T14:02:57.770Z,26.87
2022-08-30T14:06:15.858Z,26.57
2022-08-30T14:08:46.237Z,26.10
2022-08-30T14:11:20.827Z,26.34
2022-08-30T14:16:39.476Z,25.99
2022-08-30T14:19:07.383Z,25.90
2022-08-30T14:21:35.734Z,26.07
2022-08-30T14:24:05.319Z,25.83
2022-08-30T14:26:45.764Z,25.84
2022-08-30T14:29:16.441Z,26.07
2022-08-30T14:31:43.981Z,26.22
2022-08-30T14:34:12.208Z,26.23
2022-08-30T14:36:41.814Z,26.11
2022-08-30T14:39:11.891Z,26.33
2022-08-30T14:41:45.337Z,26.75
2022-08-30T14:44:13.891Z,26.79
2022-08-30T14:46:42.025Z,26.54
2022-08-30T14:49:11.197Z,26.49
2022-08-30T14:51:39.171Z,26.14
2022-08-30T14:54:06.958Z,26.19
2022-08-30T14:56:36.906Z,26.39
2022-08-30T14:59:04.138Z,26.32
2022-08-30T15:01:32.157Z,26.22
2022-08-30T15:04:07.227Z,26.43
2022-08-30T15:06:36.482Z,26.80
2022-08-30T15:09:05.961Z,27.05
2022-08-30T15:11:33.968Z,26.87
2022-08-30T15:14:01.801Z,27.06
2022-08-30T15:16:32.101Z,27.10
2022-08-30T15:18:59.602Z,27.03
2022-08-30T15:21:39.995Z,26.91
2022-08-30T15:24:09.744Z,27.15
2022-08-30T15:26:44.273Z,26.96
2022-08-30T15:29:13.761Z,26.93
2022-08-30T15:31:41.992Z,27.33
2022-08-30T15:34:11.600Z,27.59
2022-08-30T15:36:39.604Z,27.44
2022-08-30T15:39:09.796Z,27.54
2022-08-30T15:41:37.776Z,27.22
2022-08-30T15:44:07.349Z,27.16
2022-08-30T15:46:38.078Z,27.41
2022-08-30T15:49:12.338Z,27.49
2022-08-30T15:51:41.888Z,27.48
2022-08-30T15:54:16.487Z,27.27
2022-08-30T15:56:44.214Z,27.40
2022-08-30T15:59:15.234Z,27.66
2022-08-30T16:01:45.033Z,27.98
2022-08-30T16:04:18.321Z,27.45
2022-08-30T16:06:46.512Z,27.54
2022-08-30T16:09:14.025Z,27.57
2022-08-30T16:11:41.881Z,27.61
2022-08-30T16:14:09.989Z,27.49
2022-08-30T16:16:39.994Z,27.85
2022-08-30T16:19:09.453Z,27.14
2022-08-30T16:21:37.849Z,27.13
2022-08-30T16:24:06.849Z,27.45
2022-08-30T16:26:35.187Z,27.33
2022-08-30T16:29:04.452Z,27.33
2022-08-30T16:31:34.915Z,26.91
2022-08-30T16:34:04.389Z,26.81
2022-08-30T16:36:33.144Z,26.99
2022-08-30T16:39:00.908Z,27.13
2022-08-30T16:41:28.638Z,27.21
2022-08-30T16:43:56.470Z,27.10
2022-08-30T16:46:28.130Z,27.13
2022-08-30T16:48:57.570Z,27.02
2022-08-30T16:51:27.508Z,27.21
2022-08-30T16:53:56.064Z,27.39
2022-08-30T16:56:25.134Z,27.65
2022-08-30T16:59:01.367Z,27.59
2022-08-30T17:01:37.632Z,27.47
2022-08-30T17:04:06.608Z,27.36
2022-08-30T17:06:35.737Z,27.47
2022-08-30T17:09:05.076Z,27.22
2022-08-30T17:11:33.174Z,27.38
2022-08-30T17:16:48.046Z,27.63
2022-08-30T17:19:15.421Z,27.69
2022-08-30T17:21:43.740Z,27.65
2022-08-30T17:24:12.754Z,27.89
2022-08-30T17:26:40.198Z,27.88
2022-08-30T17:29:07.974Z,27.76
2022-08-30T17:31:35.923Z,27.73
2022-08-30T17:34:05.765Z,27.68
2022-08-30T17:36:35.629Z,27.58
2022-08-30T17:39:10.538Z,27.35
2022-08-30T17:41:45.345Z,27.25
2022-08-30T17:44:18.850Z,27.48
2022-08-30T17:46:46.230Z,27.49
2022-08-30T17:49:13.695Z,27.54
2022-08-30T17:51:44.200Z,27.45
2022-08-30T17:54:13.034Z,27.26
2022-08-30T17:56:41.740Z,26.85
2022-08-30T17:59:13.214Z,26.95
2022-08-30T18:01:44.161Z,27.05
2022-08-30T18:04:12.766Z,27.26
2022-08-30T18:06:40.246Z,26.94
2022-08-30T18:09:08.568Z,26.93
2022-08-30T18:11:41.675Z,26.74
2022-08-30T18:14:11.362Z,26.71
2022-08-30T18:16:49.982Z,26.91
2022-08-30T18:19:28.990Z,26.70
2022-08-30T18:21:56.426Z,26.48
2022-08-30T18:24:24.246Z,26.36
2022-08-30T18:26:52.778Z,26.35
2022-08-30T18:29:29.487Z,26.46
2022-08-30T18:32:02.879Z,26.45
2022-08-30T18:34:30.552Z,26.30
2022-08-30T18:36:57.843Z,26.19
2022-08-30T18:39:25.955Z,26.19
2022-08-30T18:41:54.628Z,26.15
2022-08-30T18:44:28.217Z,26.29
2022-08-30T18:47:00.199Z,26.37
2022-08-30T18:49:32.554Z,26.30
2022-08-30T18:52:01.913Z,26.29
2022-08-30T18:54:30.742Z,26.23
2022-08-30T18:56:58.254Z,26.16
2022-08-30T18:59:35.333Z,26.11
2022-08-30T19:02:06.666Z,26.15
2022-08-30T19:04:35.796Z,26.01
2022-08-30T19:07:06.465Z,26.30
2022-08-30T19:09:34.160Z,26.15
2022-08-30T19:12:01.569Z,26.11
2022-08-30T19:14:28.867Z,25.91
2022-08-30T19:16:57.308Z,25.73
2022-08-30T19:19:24.566Z,26.03
2022-08-30T19:21:52.264Z,25.94
2022-08-30T19:24:20.175Z,25.82
2022-08-30T19:26:48.883Z,25.97
2022-08-30T19:29:16.390Z,25.91
2022-08-30T19:31:43.815Z,25.93
2022-08-30T19:34:11.879Z,25.90
2022-08-30T19:36:39.873Z,25.98
2022-08-30T19:39:07.216Z,25.81
2022-08-30T19:41:34.742Z,25.93
2022-08-30T19:44:03.623Z,25.80
2022-08-30T19:46:32.503Z,25.78
2022-08-30T19:49:01.204Z,25.68
2022-08-30T19:51:28.880Z,25.81
2022-08-30T19:53:59.149Z,25.89
2022-08-30T19:56:26.567Z,25.72
2022-08-30T19:58:53.952Z,25.62
2022-08-30T20:01:32.357Z,25.80
2022-08-30T20:04:02.188Z,25.58
2022-08-30T20:06:31.217Z,25.83
2022-08-30T20:09:00.275Z,25.55
2022-08-30T20:11:28.264Z,25.62
2022-08-30T20:13:55.640Z,25.67
2022-08-30T20:16:36.427Z,25.33
2022-08-30T20:19:08.584Z,25.08
2022-08-30T20:21:36.778Z,25.19
2022-08-30T20:24:05.079Z,25.28
2022-08-30T20:24:23.415Z,27.39
2022-08-30T20:26:38.594Z,25.28
2022-08-30T20:29:07.376Z,25.27
2022-08-30T20:31:35.624Z,24.98
2022-08-30T20:34:04.163Z,25.08
2022-08-30T20:36:32.465Z,25.49
2022-08-30T20:39:01.377Z,25.73
2022-08-30T20:41:30.621Z,25.93
2022-08-30T20:43:58.327Z,25.86
2022-08-30T20:46:27.034Z,25.44
2022-08-30T20:48:56.854Z,25.47
2022-08-30T20:51:24.165Z,25.67
2022-08-30T20:53:51.662Z,25.67
2022-08-30T20:56:21.724Z,25.65
2022-08-30T20:58:49.442Z,25.52
2022-08-30T21:01:17.240Z,25.43
2022-08-30T21:03:47.583Z,25.51
2022-08-30T21:06:16.613Z,25.46
2022-08-30T21:08:44.335Z,25.34
2022-08-30T21:11:12.310Z,25.10
2022-08-30T21:13:39.587Z,25.06
2022-08-30T21:16:07.476Z,25.00
2022-08-30T21:18:36.332Z,24.84
2022-08-30T21:21:15.512Z,24.85
2022-08-30T21:23:42.810Z,25.00
2022-08-30T21:26:10.524Z,24.90
2022-08-30T21:28:38.882Z,24.65
2022-08-30T21:31:08.367Z,24.06
2022-08-30T21:33:36.536Z,24.17
2022-08-30T21:36:27.091Z,23.87
2022-08-30T21:38:54.563Z,23.75
2022-08-30T21:41:28.911Z,23.69
2022-08-30T21:44:01.825Z,23.92
2022-08-30T21:46:30.379Z,23.87
2022-08-30T21:49:01.262Z,23.87
2022-08-30T21:51:29.526Z,23.46
2022-08-30T21:53:57.634Z,23.62
2022-08-30T21:56:25.181Z,23.59
2022-08-30T21:58:52.451Z,23.67
2022-08-30T22:01:23.556Z,23.56
2022-08-30T22:03:52.430Z,23.34
2022-08-30T22:06:19.759Z,23.58
2022-08-30T22:08:49.902Z,23.70
2022-08-30T22:11:21.553Z,23.50
2022-08-30T22:13:50.588Z,23.31
2022-08-30T22:16:20.779Z,23.17
2022-08-30T22:18:48.792Z,23.01
2022-08-30T22:21:19.554Z,22.93
2022-08-30T22:23:46.872Z,23.10
2022-08-30T22:26:15.996Z,22.91
2022-08-30T22:28:43.325Z,22.94
2022-08-30T22:31:12.546Z,23.02
2022-08-30T22:33:40.720Z,23.00
2022-08-30T22:36:17.419Z,22.98
2022-08-30T22:38:44.933Z,22.71
2022-08-30T22:41:16.605Z,22.71
2022-08-30T22:43:45.004Z,22.62
2022-08-30T22:46:12.578Z,22.93
2022-08-30T22:48:42.051Z,23.11
2022-08-30T22:51:10.139Z,23.11
2022-08-30T22:53:37.951Z,23.00
2022-08-30T22:56:20.080Z,23.01
2022-08-30T22:58:48.112Z,22.89
2022-08-30T23:01:29.648Z,22.90
2022-08-30T23:03:58.042Z,22.85
2022-08-30T23:06:25.370Z,22.61
2022-08-30T23:08:52.998Z,22.60
2022-08-30T23:11:20.680Z,22.51
2022-08-30T23:13:48.356Z,22.33
2022-08-30T23:16:16.519Z,22.30
2022-08-30T23:18:45.339Z,22.33
2022-08-30T23:21:19.229Z,22.53
2022-08-30T23:24:05.157Z,22.55
2022-08-30T23:26:51.240Z,22.53
2022-08-30T23:29:37.239Z,22.60
2022-08-30T23:32:23.661Z,22.63
2022-08-30T23:35:09.472Z,22.76
2022-08-30T23:37:55.419Z,22.40
2022-08-30T23:40:42.128Z,22.23
2022-08-30T23:43:28.962Z,22.30
2022-08-30T23:46:18.801Z,22.40
2022-08-30T23:49:08.747Z,22.35
2022-08-30T23:51:56.312Z,22.16
2022-08-30T23:54:42.636Z,22.19
2022-08-30T23:57:28.527Z,22.27
